Time;durP1;ratioP1;P1;durP2;ratioP2;P2;SDS_P1;SDS_P2;PMS_P1;PMS_P2;Temp;Humidity;BMP_temperature;BMP_pressure;BME280_temperature;BME280_humidity;BME280_pressure;Samples;Min_cycle;Max_cycle;Signal;HPM_P1;HPM_P2
2022/11/19 00:01:57;;;;;;;16.80;10.03;;;10.80;99.90;;;;;;6195160;23;20402;-85
2022/11/19 00:04:23;;;;;;;13.13;9.37;;;10.80;99.90;;;;;;6219336;23;20168;-85
2022/11/19 00:06:49;;;;;;;10.60;9.10;;;10.80;99.90;;;;;;6219920;23;20150;-86
2022/11/19 00:09:15;;;;;;;14.43;10.70;;;10.80;99.90;;;;;;6221912;23;20156;-83
2022/11/19 00:14:25;;;;;;;11.70;10.43;;;10.80;99.90;;;;;;6219526;23;20150;-86
2022/11/19 00:16:50;;;;;;;12.47;10.80;;;10.70;99.90;;;;;;6221258;23;20444;-84
2022/11/19 00:19:16;;;;;;;14.23;10.67;;;10.70;99.90;;;;;;6219755;23;20519;-84
2022/11/19 00:21:41;;;;;;;14.93;10.40;;;10.70;99.90;;;;;;6193829;23;20201;-85
2022/11/19 00:24:07;;;;;;;15.43;10.80;;;10.70;99.90;;;;;;6221619;23;20158;-85
2022/11/19 00:26:33;;;;;;;12.90;10.70;;;10.70;99.90;;;;;;6221555;23;20150;-85
2022/11/19 00:28:59;;;;;;;12.67;11.37;;;10.70;1.00;;;;;;6221174;23;20369;-85
2022/11/19 00:31:24;;;;;;;16.67;12.40;;;10.70;99.90;;;;;;6219586;23;20193;-85
2022/11/19 00:33:50;;;;;;;19.60;13.37;;;10.70;99.90;;;;;;6221226;23;20321;-83
2022/11/19 00:36:16;;;;;;;16.33;12.30;;;10.70;99.90;;;;;;6221415;23;20150;-85
2022/11/19 00:38:42;;;;;;;16.30;12.33;;;10.70;99.90;;;;;;6220983;23;20150;-86
2022/11/19 00:41:08;;;;;;;12.67;11.47;;;10.70;99.90;;;;;;6220851;23;20488;-84
2022/11/19 00:43:45;;;;;;;13.53;12.13;;;10.70;99.90;;;;;;6220596;23;20373;-85
2022/11/19 00:46:19;;;;;;;15.20;11.37;;;10.70;99.90;;;;;;6220826;23;20432;-83
2022/11/19 00:48:46;;;;;;;16.50;12.77;;;10.70;99.90;;;;;;6220207;23;20847;-85
2022/11/19 00:51:12;;;;;;;12.33;11.03;;;10.70;99.90;;;;;;6193487;23;20404;-85
2022/11/19 00:53:37;;;;;;;12.97;10.40;;;10.70;99.90;;;;;;6193003;23;20769;-84
2022/11/19 00:56:08;;;;;;;19.40;10.70;;;10.70;99.90;;;;;;6221362;23;20385;-85
2022/11/19 00:58:34;;;;;;;11.50;10.10;;;10.70;99.90;;;;;;6220976;23;20145;-85
2022/11/19 01:00:59;;;;;;;12.40;9.70;;;10.70;99.90;;;;;;6193797;23;20396;-86
2022/11/19 01:03:25;;;;;;;15.87;9.50;;;10.70;99.90;;;;;;6219699;23;20868;-85
2022/11/19 01:05:51;;;;;;;12.03;10.03;;;10.70;99.90;;;;;;6221277;23;20143;-86
2022/11/19 01:08:17;;;;;;;12.77;10.00;;;10.70;99.90;;;;;;6220785;23;20149;-85
2022/11/19 01:10:43;;;;;;;10.80;9.70;;;10.70;99.90;;;;;;6219620;23;20196;-85
2022/11/19 01:15:53;;;;;;;10.83;7.70;;;10.70;1.00;;;;;;6221175;23;20411;-84
2022/11/19 01:18:19;;;;;;;7.87;6.50;;;10.70;1.00;;;;;;6221316;23;20384;-85
2022/11/19 01:20:45;;;;;;;8.43;7.20;;;10.60;99.90;;;;;;6220835;23;20223;-86
2022/11/19 01:23:11;;;;;;;7.80;7.00;;;10.50;99.90;;;;;;6218656;23;20156;-85
2022/11/19 01:25:36;;;;;;;10.23;8.53;;;10.40;99.90;;;;;;6220258;23;20368;-85
2022/11/19 01:28:02;;;;;;;9.57;7.37;;;10.30;99.90;;;;;;6219258;23;20385;-84
2022/11/19 01:30:28;;;;;;;9.40;7.40;;;10.30;99.90;;;;;;6220423;23;20180;-84
2022/11/19 01:32:54;;;;;;;10.90;8.37;;;10.20;99.90;;;;;;6220279;23;20424;-84
2022/11/19 01:35:19;;;;;;;12.27;9.00;;;10.10;99.90;;;;;;6221087;23;20377;-84
2022/11/19 01:37:46;;;;;;;12.20;9.17;;;10.10;99.90;;;;;;6222260;23;20261;-84
2022/11/19 01:40:12;;;;;;;13.90;9.73;;;10.00;99.90;;;;;;6237225;23;20400;-85
2022/11/19 01:42:49;;;;;;;11.30;9.70;;;9.90;99.90;;;;;;6239219;23;20157;-83
2022/11/19 01:45:23;;;;;;;13.90;10.33;;;9.90;99.90;;;;;;6217382;23;20364;-84
2022/11/19 01:47:52;;;;;;;12.23;9.60;;;9.80;99.90;;;;;;6191215;23;20452;-83
2022/11/19 01:50:18;;;;;;;14.40;10.70;;;9.70;99.90;;;;;;6216178;23;20405;-85
2022/11/19 01:52:43;;;;;;;12.63;9.47;;;9.60;99.90;;;;;;6217034;23;20427;-83
2022/11/19 01:55:10;;;;;;;14.13;10.67;;;9.50;99.90;;;;;;6216392;23;20381;-85
2022/11/19 01:57:40;;;;;;;13.67;11.97;;;9.30;99.90;;;;;;6220704;23;20161;-85
2022/11/19 02:00:07;;;;;;;15.07;10.63;;;9.20;99.90;;;;;;6192330;23;20393;-85
2022/11/19 02:02:33;;;;;;;12.73;8.75;;;9.10;99.90;;;;;;6219655;23;20435;-85
2022/11/19 02:05:00;;;;;;;10.93;7.75;;;9.00;99.90;;;;;;6220502;23;20595;-85
2022/11/19 02:07:28;;;;;;;12.07;8.43;;;9.00;99.90;;;;;;6221434;23;20179;-85
2022/11/19 02:09:58;;;;;;;10.10;7.77;;;8.80;99.90;;;;;;6218740;23;20150;-83
2022/11/19 02:12:33;;;;;;;11.45;7.65;;;8.70;99.90;;;;;;6219126;23;20432;-85
2022/11/19 02:15:05;;;;;;;9.07;6.10;;;8.70;99.90;;;;;;6219566;23;20558;-84
2022/11/19 02:17:58;;;;;;;9.52;6.70;;;8.70;99.90;;;;;;6193198;23;20215;-85
2022/11/19 02:20:44;;;;;;;9.38;7.47;;;8.70;99.90;;;;;;6219588;23;20174;-85
2022/11/19 02:23:19;;;;;;;10.43;7.45;;;8.60;99.90;;;;;;6220522;23;20142;-85
2022/11/19 02:26:12;;;;;;;7.45;6.47;;;8.60;99.90;;;;;;6220825;23;20188;-84
2022/11/19 02:28:44;;;;;;;7.88;6.30;;;8.60;99.90;;;;;;6192603;23;20141;-85
2022/11/19 02:31:16;;;;;;;9.90;7.15;;;8.60;99.90;;;;;;6219474;23;20170;-84
2022/11/19 02:34:10;;;;;;;8.50;6.30;;;8.50;99.90;;;;;;6217968;23;20186;-85
2022/11/19 02:37:07;;;;;;;9.63;7.20;;;8.50;99.90;;;;;;6215268;23;20485;-84
2022/11/19 02:39:59;;;;;;;8.57;7.15;;;8.40;99.90;;;;;;6187560;23;20180;-84
2022/11/19 02:42:59;;;;;;;9.88;7.28;;;8.30;99.90;;;;;;6220186;23;20204;-85
2022/11/19 02:45:42;;;;;;;8.32;7.07;;;8.20;99.90;;;;;;6215978;23;20670;-85
2022/11/19 02:48:14;;;;;;;9.75;8.43;;;8.10;99.90;;;;;;6220056;23;20138;-84
2022/11/19 02:50:47;;;;;;;10.57;9.13;;;7.90;99.90;;;;;;6217337;23;20204;-84
2022/11/19 02:53:13;;;;;;;9.70;8.15;;;7.90;99.90;;;;;;6219992;23;20174;-85
2022/11/19 02:55:39;;;;;;;9.30;8.00;;;7.80;99.90;;;;;;6219520;23;20145;-85
2022/11/19 03:06:36;;;;;;;9.10;8.15;;;7.60;99.90;;;;;;6219798;23;20148;-85
2022/11/19 03:09:02;;;;;;;9.25;8.15;;;7.50;99.90;;;;;;6218309;23;20182;-83
2022/11/19 03:11:29;;;;;;;12.02;7.72;;;7.50;99.90;;;;;;6192678;23;20177;-84
2022/11/19 03:17:09;;;;;;;10.82;8.63;;;7.40;99.90;;;;;;6219877;23;20173;-85
2022/11/19 03:19:45;;;;;;;11.23;8.90;;;7.40;99.90;;;;;;6219989;23;20506;-85
2022/11/19 03:22:31;;;;;;;9.43;7.72;;;7.40;99.90;;;;;;6219610;23;20196;-85
2022/11/19 03:25:19;;;;;;;8.93;7.50;;;7.40;99.90;;;;;;6218688;23;20150;-84
2022/11/19 03:27:48;;;;;;;11.20;9.80;;;7.40;99.90;;;;;;6224334;23;20206;-84
2022/11/19 03:30:15;;;;;;;12.50;9.60;;;7.30;99.90;;;;;;6221872;23;20170;-85
2022/11/19 03:32:49;;;;;;;14.32;9.57;;;7.20;99.90;;;;;;6194040;23;20197;-84
2022/11/19 03:35:21;;;;;;;15.82;10.68;;;7.10;99.90;;;;;;6221366;23;20134;-84
2022/11/19 03:37:51;;;;;;;14.13;10.88;;;7.00;99.90;;;;;;6222116;23;20169;-84
2022/11/19 03:40:19;;;;;;;12.55;9.77;;;6.90;99.90;;;;;;6220654;23;20169;-84
2022/11/19 03:42:50;;;;;;;11.93;9.88;;;6.90;99.90;;;;;;6219390;23;20185;-84
2022/11/19 03:45:20;;;;;;;11.95;9.45;;;6.80;99.90;;;;;;6221990;23;20150;-85
2022/11/19 03:47:48;;;;;;;15.00;9.95;;;6.80;99.90;;;;;;6221132;23;20145;-85
2022/11/19 03:50:32;;;;;;;13.43;9.90;;;6.80;99.90;;;;;;6220977;23;20173;-84
2022/11/19 03:52:58;;;;;;;15.18;10.20;;;6.80;99.90;;;;;;6221915;23;20181;-84
2022/11/19 03:55:33;;;;;;;13.00;9.70;;;6.80;99.90;;;;;;6221242;23;20491;-83
2022/11/19 03:58:08;;;;;;;12.35;9.68;;;6.80;99.90;;;;;;6219855;23;20367;-85
2022/11/19 04:00:33;;;;;;;14.02;9.48;;;6.80;99.90;;;;;;6194044;23;20189;-86
2022/11/19 04:02:59;;;;;;;12.33;9.23;;;6.80;99.90;;;;;;6220808;23;20175;-85
2022/11/19 04:05:25;;;;;;;11.70;8.87;;;6.80;99.90;;;;;;6219886;23;20228;-85
2022/11/19 04:07:51;;;;;;;13.83;10.37;;;6.70;99.90;;;;;;6221514;23;20377;-85
2022/11/19 04:10:16;;;;;;;16.00;11.47;;;6.70;99.90;;;;;;6220043;23;20442;-85
2022/11/19 04:12:42;;;;;;;18.90;12.70;;;6.60;99.90;;;;;;6220475;23;20240;-84
2022/11/19 04:15:13;;;;;;;17.33;11.60;;;6.50;99.90;;;;;;6219713;23;20663;-83
2022/11/19 04:17:38;;;;;;;17.38;12.88;;;6.40;99.90;;;;;;6221472;23;20519;-85
2022/11/19 04:20:05;;;;;;;19.23;11.73;;;6.40;99.90;;;;;;6192432;23;20209;-85
2022/11/19 04:22:31;;;;;;;16.13;12.13;;;6.40;99.90;;;;;;6194646;23;20153;-85
2022/11/19 04:24:56;;;;;;;18.03;11.70;;;6.30;99.90;;;;;;6220992;23;20231;-85
2022/11/19 04:27:22;;;;;;;16.13;12.80;;;6.30;99.90;;;;;;6221259;23;20161;-84
2022/11/19 04:29:47;;;;;;;16.30;12.87;;;6.30;99.90;;;;;;6221070;23;20158;-85
2022/11/19 04:32:13;;;;;;;15.67;11.60;;;6.30;99.90;;;;;;6221684;23;20173;-84
2022/11/19 04:34:38;;;;;;;18.30;12.97;;;6.40;99.90;;;;;;6218172;23;20650;-85
2022/11/19 04:37:04;;;;;;;16.30;12.13;;;6.40;99.90;;;;;;6220838;23;20584;-86
2022/11/19 04:39:29;;;;;;;20.60;13.87;;;6.40;99.90;;;;;;6218938;23;20149;-85
2022/11/19 04:41:55;;;;;;;18.87;12.70;;;6.40;99.90;;;;;;6220526;23;20178;-85
2022/11/19 04:44:21;;;;;;;15.10;11.60;;;6.30;99.90;;;;;;6194381;23;20214;-85
2022/11/19 04:46:46;;;;;;;16.33;11.80;;;6.30;99.90;;;;;;6194140;23;20598;-84
2022/11/19 04:49:12;;;;;;;21.27;13.80;;;6.40;99.90;;;;;;6221993;23;20626;-85
2022/11/19 04:51:37;;;;;;;16.00;12.47;;;6.40;99.90;;;;;;6219611;23;20282;-84
2022/11/19 04:54:03;;;;;;;21.03;13.20;;;6.40;99.90;;;;;;6220292;23;20177;-84
2022/11/19 04:56:29;;;;;;;20.53;13.73;;;6.50;99.90;;;;;;6219191;23;20149;-86
2022/11/19 04:58:54;;;;;;;18.50;11.63;;;6.50;99.90;;;;;;6220842;23;20161;-85
2022/11/19 05:01:20;;;;;;;17.63;12.80;;;6.50;99.90;;;;;;6220599;23;20189;-85
2022/11/19 05:03:46;;;;;;;20.37;12.87;;;6.50;99.90;;;;;;6221223;23;20226;-85
2022/11/19 05:06:12;;;;;;;20.17;13.43;;;6.50;99.90;;;;;;6221683;23;20150;-84
2022/11/19 05:08:38;;;;;;;26.37;15.17;;;6.50;99.90;;;;;;6219765;23;20189;-85
2022/11/19 05:11:03;;;;;;;20.57;14.10;;;6.50;99.90;;;;;;6220262;23;20178;-84
2022/11/19 05:13:29;;;;;;;23.23;15.53;;;6.50;99.90;;;;;;6193994;23;20181;-85
2022/11/19 05:15:55;;;;;;;19.77;12.90;;;6.40;99.90;;;;;;6226476;23;20193;-86
2022/11/19 05:18:20;;;;;;;24.30;14.77;;;6.30;99.90;;;;;;6213008;23;20173;-84
2022/11/19 05:20:47;;;;;;;24.20;15.80;;;6.30;99.90;;;;;;6238966;22;20165;-84
2022/11/19 05:23:12;;;;;;;23.77;15.18;;;6.20;99.90;;;;;;6220954;23;20153;-84
2022/11/19 05:25:38;;;;;;;26.63;16.77;;;6.10;99.90;;;;;;6218150;23;20152;-85
2022/11/19 05:28:03;;;;;;;26.40;15.57;;;6.10;99.90;;;;;;6220331;23;20639;-85
2022/11/19 05:30:29;;;;;;;23.80;15.40;;;6.10;99.90;;;;;;6217734;23;20173;-84
2022/11/19 05:32:54;;;;;;;24.43;15.60;;;6.20;99.90;;;;;;6219163;23;20191;-85
2022/11/19 05:35:20;;;;;;;29.70;17.70;;;6.20;99.90;;;;;;6219891;23;20150;-85
2022/11/19 05:37:49;;;;;;;26.33;17.03;;;6.20;99.90;;;;;;6193763;23;20236;-86
2022/11/19 05:40:16;;;;;;;28.40;18.00;;;6.30;99.90;;;;;;6220377;23;20229;-84
2022/11/19 05:42:41;;;;;;;24.95;16.65;;;6.30;99.90;;;;;;6219048;23;20607;-84
2022/11/19 05:45:07;;;;;;;26.40;18.27;;;6.20;99.90;;;;;;6219177;23;20164;-85
2022/11/19 05:47:33;;;;;;;30.67;16.95;;;6.20;99.90;;;;;;6219098;23;20153;-84
2022/11/19 05:49:58;;;;;;;29.50;19.97;;;6.10;97.60;;;;;;6220147;23;20670;-85
2022/11/19 05:52:24;;;;;;;28.30;19.40;;;6.00;99.90;;;;;;6220542;23;20216;-85
2022/11/19 05:54:50;;;;;;;30.23;18.93;;;5.90;99.90;;;;;;6220133;23;20461;-85
2022/11/19 05:57:15;;;;;;;30.80;18.00;;;5.80;99.90;;;;;;6220179;23;20200;-86
2022/11/19 05:59:41;;;;;;;29.33;19.47;;;5.80;99.90;;;;;;6219137;23;20150;-85
2022/11/19 06:02:06;;;;;;;30.40;18.23;;;5.80;99.90;;;;;;6218757;23;20627;-85
2022/11/19 06:04:32;;;;;;;35.30;19.50;;;5.80;99.90;;;;;;6219135;23;20172;-85
2022/11/19 06:06:57;;;;;;;35.93;18.30;;;5.80;99.90;;;;;;6218732;23;20154;-85
2022/11/19 06:09:23;;;;;;;31.60;20.70;;;5.90;99.90;;;;;;6219606;23;20157;-85
2022/11/19 06:11:51;;;;;;;26.70;17.63;;;5.90;99.90;;;;;;6221186;23;20180;-85
2022/11/19 06:14:21;;;;;;;29.70;17.85;;;6.00;99.90;;;;;;6220910;23;20185;-85
2022/11/19 06:16:47;;;;;;;33.47;19.20;;;5.90;99.90;;;;;;6191675;23;20150;-84
2022/11/19 06:19:12;;;;;;;31.73;18.58;;;5.90;99.90;;;;;;6218867;23;20153;-85
2022/11/19 06:21:38;;;;;;;31.33;21.03;;;5.90;99.90;;;;;;6191873;23;20200;-85
2022/11/19 06:24:04;;;;;;;34.20;19.37;;;5.80;61.90;;;;;;6221144;23;20185;-86
2022/11/19 06:26:29;;;;;;;33.00;20.37;;;5.80;92.70;;;;;;6219692;23;20169;-85
2022/11/19 06:28:55;;;;;;;36.17;20.40;;;5.70;31.00;;;;;;6221034;23;20544;-85
2022/11/19 06:31:21;;;;;;;37.10;20.97;;;5.60;32.30;;;;;;6219613;23;20173;-83
2022/11/19 06:33:47;;;;;;;33.80;19.30;;;5.60;78.40;;;;;;6193778;23;20603;-86
2022/11/19 06:36:13;;;;;;;36.70;19.20;;;5.60;99.90;;;;;;6220017;23;20375;-86
2022/11/19 06:38:39;;;;;;;31.93;20.83;;;5.60;99.90;;;;;;6219352;23;20749;-86
2022/11/19 06:41:04;;;;;;;31.07;19.67;;;5.60;99.90;;;;;;6222041;23;20419;-85
2022/11/19 06:43:30;;;;;;;28.77;18.93;;;5.60;99.90;;;;;;6224771;23;20150;-86
2022/11/19 06:45:55;;;;;;;28.10;17.67;;;5.50;99.90;;;;;;6217017;23;20157;-83
2022/11/19 06:48:21;;;;;;;31.47;19.23;;;5.60;99.90;;;;;;6215967;23;20596;-82
2022/11/19 06:50:47;;;;;;;32.60;20.43;;;5.60;99.90;;;;;;6215827;23;20647;-85
2022/11/19 06:53:12;;;;;;;36.33;20.23;;;5.50;99.90;;;;;;6217820;23;20193;-84
2022/11/19 06:55:38;;;;;;;34.47;21.73;;;5.50;99.90;;;;;;6214290;23;20158;-84
2022/11/19 07:00:39;;;;;;;32.63;19.50;;;5.50;99.90;;;;;;6218465;23;20173;-82
2022/11/19 07:03:05;;;;;;;34.27;21.43;;;5.60;99.90;;;;;;6218966;23;20209;-83
2022/11/19 07:05:31;;;;;;;34.70;19.83;;;5.60;99.90;;;;;;6218692;23;20205;-83
2022/11/19 07:07:56;;;;;;;35.30;20.57;;;5.70;99.90;;;;;;6219412;23;20154;-84
2022/11/19 07:10:22;;;;;;;31.83;19.80;;;5.80;99.90;;;;;;6220954;23;20484;-85
2022/11/19 07:12:47;;;;;;;36.97;21.83;;;5.70;99.90;;;;;;6219592;23;20807;-84
2022/11/19 07:15:15;;;;;;;34.17;21.63;;;5.70;99.90;;;;;;6220771;23;20146;-84
2022/11/19 07:17:41;;;;;;;37.63;21.38;;;5.70;99.90;;;;;;6221248;23;20160;-84
2022/11/19 07:20:07;;;;;;;38.50;22.80;;;5.80;99.90;;;;;;6221241;23;20146;-84
2022/11/19 07:22:33;;;;;;;38.00;21.80;;;5.80;99.90;;;;;;6218782;23;20408;-83
2022/11/19 07:24:58;;;;;;;38.17;24.10;;;5.80;99.90;;;;;;6220066;23;20149;-84
2022/11/19 07:27:24;;;;;;;38.10;24.00;;;5.80;99.90;;;;;;6220101;23;20204;-83
2022/11/19 07:29:49;;;;;;;37.70;21.93;;;5.80;99.90;;;;;;6219795;23;20157;-84
2022/11/19 07:32:15;;;;;;;39.37;22.33;;;5.90;99.90;;;;;;6220680;23;20605;-84
2022/11/19 07:34:40;;;;;;;39.77;23.30;;;5.90;99.90;;;;;;6221944;23;20169;-84
2022/11/19 07:37:06;;;;;;;39.20;23.27;;;5.90;99.90;;;;;;6221424;23;20150;-85
2022/11/19 07:39:34;;;;;;;42.20;24.47;;;5.90;99.90;;;;;;6219032;23;20224;-84
2022/11/19 07:44:43;;;;;;;37.92;22.20;;;5.90;99.90;;;;;;6220197;23;20192;-84
2022/11/19 07:47:09;;;;;;;35.90;23.00;;;5.80;99.90;;;;;;6221107;23;20655;-85
2022/11/19 07:49:34;;;;;;;38.80;22.53;;;5.80;99.60;;;;;;6220759;23;20158;-84
2022/11/19 07:52:00;;;;;;;39.90;23.80;;;5.70;49.10;;;;;;6193991;23;20204;-83
2022/11/19 07:54:25;;;;;;;35.33;22.33;;;5.70;99.90;;;;;;6219677;23;20193;-84
2022/11/19 07:56:51;;;;;;;36.47;22.50;;;5.70;99.90;;;;;;6219882;23;20604;-83
2022/11/19 07:59:19;;;;;;;34.90;22.17;;;5.70;99.90;;;;;;6220434;23;20160;-83
2022/11/19 08:01:44;;;;;;;32.65;21.40;;;5.70;99.90;;;;;;6218465;23;20255;-84
2022/11/19 08:04:12;;;;;;;37.83;23.13;;;5.70;99.90;;;;;;6220671;23;20523;-82
2022/11/19 08:06:40;;;;;;;39.30;23.00;;;5.70;99.90;;;;;;6196770;23;20156;-84
2022/11/19 08:09:06;;;;;;;34.08;21.35;;;5.70;99.90;;;;;;6222106;23;20177;-83
2022/11/19 08:11:32;;;;;;;36.97;23.17;;;5.70;99.90;;;;;;6221279;23;20193;-82
2022/11/19 08:14:01;;;;;;;35.87;22.07;;;5.70;99.90;;;;;;6221153;23;20178;-84
2022/11/19 08:19:14;;;;;;;35.05;22.45;;;5.70;99.90;;;;;;6220257;23;20193;-84
2022/11/19 08:21:41;;;;;;;32.58;21.33;;;5.70;99.90;;;;;;6220946;23;20224;-84
2022/11/19 08:24:10;;;;;;;34.72;22.00;;;5.70;82.40;;;;;;6192188;23;20465;-84
2022/11/19 08:26:37;;;;;;;35.72;23.05;;;5.70;99.90;;;;;;6194738;23;20176;-84
2022/11/19 08:29:03;;;;;;;33.40;21.60;;;5.70;99.90;;;;;;6221501;23;20154;-84
2022/11/19 08:31:29;;;;;;;37.45;22.80;;;5.80;99.90;;;;;;6220925;23;20181;-83
2022/11/19 08:33:55;;;;;;;33.60;21.30;;;5.80;99.90;;;;;;6221301;23;20690;-84
2022/11/19 08:36:20;;;;;;;31.60;21.10;;;5.80;53.10;;;;;;6220153;23;20377;-84
2022/11/19 08:38:46;;;;;;;39.23;22.93;;;5.80;1.00;;;;;;6221249;23;20150;-84
2022/11/19 08:43:59;;;;;;;34.08;21.95;;;5.80;1.00;;;;;;6221586;23;20149;-84
2022/11/19 08:46:24;;;;;;;35.00;20.92;;;5.80;1.00;;;;;;6195110;23;20225;-84
2022/11/19 08:48:50;;;;;;;36.63;23.17;;;5.80;1.00;;;;;;6222033;23;20150;-85
2022/11/19 08:51:15;;;;;;;35.10;21.40;;;5.80;1.00;;;;;;6222390;23;20173;-84
2022/11/19 08:53:41;;;;;;;39.23;22.60;;;5.70;1.00;;;;;;6219036;23;20185;-84
2022/11/19 08:56:07;;;;;;;36.70;21.80;;;5.70;1.00;;;;;;6232888;23;20216;-83
2022/11/19 08:58:35;;;;;;;44.70;25.30;;;5.80;1.00;;;;;;6238940;23;20153;-85
2022/11/19 09:01:11;;;;;;;36.42;23.40;;;5.80;1.00;;;;;;6229091;23;20196;-83
2022/11/19 09:03:37;;;;;;;36.88;23.08;;;5.80;1.00;;;;;;6220105;23;20169;-83
2022/11/19 09:06:02;;;;;;;34.88;20.63;;;5.80;1.00;;;;;;6223379;23;20161;-84
2022/11/19 09:08:29;;;;;;;36.80;22.50;;;5.80;1.00;;;;;;6220038;23;20154;-84
2022/11/19 09:10:54;;;;;;;35.00;21.30;;;5.80;99.90;;;;;;6189580;23;20232;-85
2022/11/19 09:13:22;;;;;;;35.10;22.50;;;5.70;99.90;;;;;;6218460;23;20419;-82
2022/11/19 09:15:49;;;;;;;36.22;21.67;;;5.70;99.90;;;;;;6216921;23;20177;-83
2022/11/19 09:18:14;;;;;;;35.95;23.73;;;5.70;99.90;;;;;;6219101;23;20160;-83
2022/11/19 09:20:40;;;;;;;40.87;24.00;;;5.80;99.90;;;;;;6223068;23;20169;-83
2022/11/19 09:23:05;;;;;;;34.07;22.40;;;5.80;99.90;;;;;;6192687;23;20164;-83
2022/11/19 09:25:32;;;;;;;33.73;21.10;;;5.80;99.90;;;;;;6220170;23;20376;-82
2022/11/19 09:27:57;;;;;;;35.97;22.25;;;5.80;99.90;;;;;;6219968;23;20175;-84
2022/11/19 09:30:23;;;;;;;32.57;22.33;;;5.80;99.90;;;;;;6217967;23;20193;-82
2022/11/19 09:32:51;;;;;;;33.20;22.17;;;5.80;99.90;;;;;;6194410;23;20177;-84
2022/11/19 09:35:17;;;;;;;37.83;22.17;;;5.90;99.90;;;;;;6219139;23;20188;-84
2022/11/19 09:37:43;;;;;;;36.67;21.77;;;5.80;1.00;;;;;;6221211;23;20150;-84
2022/11/19 09:40:20;;;;;;;36.90;22.73;;;5.80;1.00;;;;;;6228721;23;20534;-84
2022/11/19 09:43:23;;;;;;;35.80;23.48;;;5.80;1.00;;;;;;6224857;23;20260;-84
2022/11/19 09:45:58;;;;;;;32.65;20.40;;;5.80;41.40;;;;;;6203652;23;20172;-84
2022/11/19 09:51:45;;;;;;;;;;;;;;;;;;;;;
2022/11/19 09:54:18;;;;;;;38.05;24.10;;;5.80;1.00;;;;;;6219586;23;20255;-83
2022/11/19 09:56:49;;;;;;;38.20;25.15;;;5.80;1.00;;;;;;6219125;23;20168;-83
2022/11/19 09:59:34;;;;;;;42.15;24.55;;;5.80;1.00;;;;;;6221731;23;20134;-84
2022/11/19 10:02:02;;;;;;;44.67;25.55;;;5.80;1.00;;;;;;6218648;23;20165;-83
2022/11/19 10:04:32;;;;;;;49.30;25.90;;;5.80;99.90;;;;;;6213735;23;20161;-82
2022/11/19 10:07:11;;;;;;;40.20;22.70;;;5.90;99.90;;;;;;6187832;23;20161;-83
2022/11/19 10:09:44;;;;;;;36.47;23.33;;;5.90;99.90;;;;;;6192297;23;20152;-84
2022/11/19 10:12:31;;;;;;;39.42;23.45;;;6.00;1.00;;;;;;6216100;23;20650;-84
2022/11/19 10:15:06;;;;;;;37.13;23.33;;;6.10;99.90;;;;;;6217905;23;20150;-85
2022/11/19 10:17:53;;;;;;;38.08;23.15;;;6.10;99.90;;;;;;6192279;23;20546;-83
2022/11/19 10:20:37;;;;;;;38.28;22.70;;;6.30;1.00;;;;;;6217587;23;20650;-83
2022/11/19 10:23:16;;;;;;;31.67;21.05;;;6.30;1.00;;;;;;6217616;23;20138;-82
2022/11/19 10:25:48;;;;;;;34.13;22.00;;;6.50;99.90;;;;;;6217477;23;20138;-83
2022/11/19 10:28:21;;;;;;;35.65;22.63;;;6.60;99.90;;;;;;6217243;23;20217;-84
2022/11/19 10:30:54;;;;;;;33.20;20.83;;;6.70;1.00;;;;;;6217445;23;20571;-84
2022/11/19 10:33:26;;;;;;;33.30;21.75;;;6.80;99.90;;;;;;6217602;23;20177;-83
2022/11/19 10:35:59;;;;;;;34.38;22.45;;;6.80;1.00;;;;;;6213893;23;20137;-82
2022/11/19 10:38:52;;;;;;;31.00;20.42;;;6.80;1.00;;;;;;6217592;23;20150;-82
2022/11/19 10:41:44;;;;;;;32.92;20.65;;;6.80;99.90;;;;;;6215860;23;20173;-82
2022/11/19 10:44:40;;;;;;;33.67;21.05;;;6.80;99.90;;;;;;6167442;23;20240;-83
2022/11/19 10:47:25;;;;;;;35.08;21.45;;;6.80;99.90;;;;;;6215924;23;20164;-83
2022/11/19 10:49:54;;;;;;;35.00;22.75;;;6.90;99.90;;;;;;6219842;23;20451;-84
2022/11/19 10:52:30;;;;;;;32.40;20.35;;;6.80;1.00;;;;;;6218364;23;20150;-84
2022/11/19 10:55:16;;;;;;;34.45;20.35;;;6.90;1.00;;;;;;6218363;23;20229;-84
2022/11/19 10:57:42;;;;;;;33.30;21.70;;;7.00;1.00;;;;;;6217920;23;20587;-83
2022/11/19 11:00:09;;;;;;;32.38;20.77;;;6.90;1.00;;;;;;6220743;23;20173;-85
2022/11/19 11:02:48;;;;;;;31.98;20.63;;;6.90;99.90;;;;;;6221240;23;20154;-84
2022/11/19 11:05:16;;;;;;;31.65;19.98;;;6.90;1.00;;;;;;6194053;23;20169;-85
2022/11/19 11:08:11;;;;;;;29.50;20.10;;;7.00;1.00;;;;;;6220458;23;20157;-84
2022/11/19 11:10:43;;;;;;;33.10;20.35;;;7.20;1.00;;;;;;6198844;23;20178;-85
2022/11/19 11:16:44;;;;;;;28.77;19.45;;;7.10;99.90;;;;;;6221751;23;20224;-85
2022/11/19 11:19:18;;;;;;;34.00;20.63;;;7.10;99.90;;;;;;6219967;23;20173;-84
2022/11/19 11:21:45;;;;;;;31.70;20.92;;;7.10;90.40;;;;;;6194590;23;20444;-85
2022/11/19 11:24:12;;;;;;;29.40;18.90;;;7.00;12.80;;;;;;6220511;23;20505;-84
2022/11/19 11:26:39;;;;;;;31.85;19.80;;;7.00;99.90;;;;;;6218461;23;20154;-85
2022/11/19 11:29:25;;;;;;;32.75;20.38;;;7.00;99.90;;;;;;6192991;23;20457;-83
2022/11/19 11:31:51;;;;;;;29.70;18.50;;;7.10;99.90;;;;;;6193788;23;20236;-86
2022/11/19 11:34:41;;;;;;;31.05;19.98;;;7.20;99.90;;;;;;6218485;23;20258;-85
2022/11/19 11:37:11;;;;;;;28.48;18.30;;;7.20;1.00;;;;;;6218439;23;20138;-85
2022/11/19 11:39:43;;;;;;;31.23;20.35;;;7.20;1.00;;;;;;6218902;23;20158;-85
2022/11/19 11:42:11;;;;;;;28.85;18.52;;;7.20;1.00;;;;;;6221315;23;20188;-86
2022/11/19 11:44:46;;;;;;;29.73;18.48;;;7.20;1.00;;;;;;6222053;23;20535;-84
2022/11/19 11:47:13;;;;;;;29.00;19.13;;;7.10;1.00;;;;;;6223383;23;20142;-84
2022/11/19 11:49:44;;;;;;;26.48;17.92;;;7.10;1.00;;;;;;6223076;23;20161;-85
2022/11/19 11:52:19;;;;;;;28.48;18.33;;;7.10;1.00;;;;;;6223665;23;20232;-84
2022/11/19 11:55:00;;;;;;;26.02;18.40;;;7.10;1.00;;;;;;6223709;23;20172;-84
2022/11/19 11:57:29;;;;;;;26.88;18.30;;;7.10;1.00;;;;;;6225589;23;20134;-86
2022/11/19 11:59:56;;;;;;;24.80;17.70;;;7.10;1.00;;;;;;6196315;23;20154;-84
2022/11/19 12:02:37;;;;;;;28.90;19.00;;;7.10;1.00;;;;;;6222906;23;20150;-86
2022/11/19 12:05:13;;;;;;;32.10;19.30;;;7.20;1.00;;;;;;6223514;23;20192;-85
2022/11/19 12:07:39;;;;;;;27.70;17.17;;;7.10;1.00;;;;;;6224407;23;20153;-85
2022/11/19 12:10:12;;;;;;;26.97;18.00;;;7.10;1.00;;;;;;6224103;23;20150;-86
2022/11/19 12:13:06;;;;;;;29.17;18.63;;;7.10;1.00;;;;;;6223606;23;20177;-85
2022/11/19 12:15:41;;;;;;;27.45;17.42;;;7.10;1.00;;;;;;6222203;23;20572;-84
2022/11/19 12:18:28;;;;;;;33.15;19.88;;;7.10;1.00;;;;;;6197451;23;20146;-85
2022/11/19 12:21:04;;;;;;;33.28;20.65;;;7.10;1.00;;;;;;6222379;23;20169;-86
2022/11/19 12:24:04;;;;;;;27.92;20.10;;;7.00;1.00;;;;;;6224500;23;20160;-85
2022/11/19 12:26:56;;;;;;;28.30;19.10;;;6.90;1.00;;;;;;6222733;23;20181;-86
2022/11/19 12:29:51;;;;;;;28.63;19.42;;;7.00;1.00;;;;;;6230058;23;20135;-86
2022/11/19 12:32:43;;;;;;;30.73;19.33;;;7.00;1.00;;;;;;6215669;22;20179;-86
2022/11/19 12:35:32;;;;;;;28.08;18.63;;;7.00;1.00;;;;;;6229822;22;20142;-84
2022/11/19 12:38:20;;;;;;;28.10;19.50;;;6.90;1.00;;;;;;6220347;23;20588;-85
2022/11/19 12:41:10;;;;;;;33.03;21.10;;;6.80;1.00;;;;;;6220479;23;20661;-84
2022/11/19 12:43:58;;;;;;;25.38;17.60;;;6.80;1.00;;;;;;6191679;23;20173;-84
2022/11/19 12:46:41;;;;;;;29.40;20.42;;;6.70;1.00;;;;;;6192240;23;20149;-84
2022/11/19 12:49:31;;;;;;;32.28;19.45;;;6.60;1.00;;;;;;6217969;23;20145;-85
2022/11/19 12:52:05;;;;;;;32.25;19.60;;;6.50;92.60;;;;;;6216909;23;20177;-84
2022/11/19 12:54:54;;;;;;;30.33;19.42;;;6.50;99.90;;;;;;6219679;23;20207;-84
2022/11/19 12:57:28;;;;;;;31.80;21.40;;;6.40;99.90;;;;;;6220584;23;20130;-85
2022/11/19 13:00:14;;;;;;;29.35;19.92;;;6.30;99.90;;;;;;6194109;23;20158;-84
2022/11/19 13:02:46;;;;;;;34.05;21.77;;;6.30;1.00;;;;;;6194412;23;20203;-86
2022/11/19 13:05:18;;;;;;;34.47;22.63;;;6.30;1.00;;;;;;6221715;23;20177;-83
2022/11/19 13:07:58;;;;;;;35.38;23.45;;;6.30;1.00;;;;;;6192710;23;20170;-83
2022/11/19 13:10:37;;;;;;;30.77;19.75;;;6.30;1.00;;;;;;6221294;23;20201;-84
2022/11/19 13:13:07;;;;;;;33.42;20.05;;;6.30;88.00;;;;;;6192166;23;20173;-83
2022/11/19 13:15:43;;;;;;;31.05;19.02;;;6.30;99.90;;;;;;6220385;23;20141;-83
2022/11/19 13:18:13;;;;;;;28.67;19.00;;;6.30;99.90;;;;;;6219584;23;20216;-83
2022/11/19 13:20:50;;;;;;;27.73;17.95;;;6.30;99.90;;;;;;6219221;23;20166;-83
2022/11/19 13:23:26;;;;;;;39.55;21.13;;;6.30;99.90;;;;;;6217931;23;20138;-83
2022/11/19 13:26:04;;;;;;;29.25;18.23;;;6.40;99.90;;;;;;6219070;23;20150;-84
2022/11/19 13:28:49;;;;;;;28.13;18.67;;;6.40;99.90;;;;;;6218597;23;20138;-83
2022/11/19 13:31:47;;;;;;;31.83;20.23;;;6.50;99.90;;;;;;6218395;23;20174;-82
2022/11/19 13:34:29;;;;;;;28.77;18.40;;;6.50;99.90;;;;;;6191034;23;20189;-83